Time;durP1;ratioP1;P1;durP2;ratioP2;P2;SDS_P1;SDS_P2;PMS_P1;PMS_P2;Temp;Humidity;BMP_temperature;BMP_pressure;BME280_temperature;BME280_humidity;BME280_pressure;Samples;Min_cycle;Max_cycle;Signal;HPM_P1;HPM_P2
2022/10/16 00:01:29;;;;;;;7.28;2.30;;;12.60;99.90;;;;;;5040369;28;20111;-45
2022/10/16 00:03:57;;;;;;;8.13;2.30;;;12.50;99.90;;;;;;5044314;28;20033;-44
2022/10/16 00:06:24;;;;;;;10.45;2.45;;;12.40;99.90;;;;;;5047202;28;20032;-45
2022/10/16 00:08:51;;;;;;;6.00;2.33;;;12.40;99.90;;;;;;5043387;28;20484;-47
2022/10/16 00:11:23;;;;;;;6.32;2.03;;;12.40;99.90;;;;;;5039565;28;20484;-45
2022/10/16 00:13:51;;;;;;;9.73;2.58;;;12.50;99.90;;;;;;5040854;28;20092;-44
2022/10/16 00:16:18;;;;;;;7.68;2.17;;;12.40;99.90;;;;;;5044788;28;20148;-44
2022/10/16 00:18:44;;;;;;;5.22;1.88;;;12.40;99.90;;;;;;5046089;28;20094;-44
2022/10/16 00:21:20;;;;;;;5.03;2.10;;;12.40;99.90;;;;;;5046575;28;20045;-43
2022/10/16 00:23:46;;;;;;;6.78;2.08;;;12.50;99.90;;;;;;5040320;28;20060;-44
2022/10/16 00:26:14;;;;;;;5.15;1.70;;;12.60;99.90;;;;;;5043159;28;20364;-45
2022/10/16 00:28:40;;;;;;;6.38;1.98;;;12.50;99.90;;;;;;5045542;28;20090;-47
2022/10/16 00:31:09;;;;;;;7.35;1.90;;;12.50;99.90;;;;;;5047468;28;20456;-44
2022/10/16 00:33:36;;;;;;;7.63;1.70;;;12.70;99.90;;;;;;5039885;28;20032;-42
2022/10/16 00:36:03;;;;;;;5.75;2.08;;;12.70;99.90;;;;;;5045409;28;20127;-44
2022/10/16 00:38:29;;;;;;;6.00;1.85;;;12.60;99.90;;;;;;5042017;28;20041;-45
2022/10/16 00:40:56;;;;;;;6.60;1.88;;;12.70;99.90;;;;;;5043683;28;20052;-43
2022/10/16 00:43:45;;;;;;;5.70;2.08;;;12.70;99.90;;;;;;5046305;28;20472;-44
2022/10/16 00:46:33;;;;;;;6.10;2.08;;;12.70;99.90;;;;;;5047491;28;20648;-42
2022/10/16 00:49:18;;;;;;;7.72;1.90;;;12.80;99.90;;;;;;5042107;28;20067;-44
2022/10/16 00:51:47;;;;;;;6.35;2.17;;;12.70;99.90;;;;;;5042750;28;20045;-43
2022/10/16 00:54:29;;;;;;;9.18;2.13;;;12.60;99.90;;;;;;5045400;28;20052;-44
2022/10/16 00:56:57;;;;;;;5.97;2.00;;;12.70;99.90;;;;;;5045596;28;20514;-43
2022/10/16 00:59:29;;;;;;;9.63;2.25;;;12.70;99.90;;;;;;5041049;28;20072;-45
2022/10/16 01:01:56;;;;;;;6.50;2.40;;;12.70;99.90;;;;;;5041793;28;20037;-45
2022/10/16 01:04:23;;;;;;;6.82;2.15;;;12.60;99.90;;;;;;5058579;28;20076;-43
2022/10/16 01:07:15;;;;;;;5.30;2.10;;;12.70;99.90;;;;;;5045706;28;20062;-43
2022/10/16 01:09:47;;;;;;;6.47;2.05;;;12.60;99.90;;;;;;5040508;28;20041;-43
2022/10/16 01:12:33;;;;;;;4.85;1.83;;;12.60;99.90;;;;;;5041160;28;20103;-44
2022/10/16 01:15:22;;;;;;;5.07;1.60;;;12.70;99.90;;;;;;5042445;28;20380;-44
2022/10/16 01:18:14;;;;;;;4.80;2.08;;;12.60;99.90;;;;;;5046682;28;20103;-43
2022/10/16 01:20:47;;;;;;;8.55;2.00;;;12.70;99.90;;;;;;5039580;28;20468;-43
2022/10/16 01:23:25;;;;;;;6.82;1.92;;;12.70;99.90;;;;;;5047263;28;20040;-44
2022/10/16 01:26:23;;;;;;;7.00;2.25;;;12.60;99.90;;;;;;5048939;28;20033;-43
2022/10/16 01:28:57;;;;;;;6.13;1.83;;;12.70;99.90;;;;;;5050005;28;20067;-43
2022/10/16 01:31:28;;;;;;;5.90;2.15;;;12.60;99.90;;;;;;5044003;28;20123;-45
2022/10/16 01:34:14;;;;;;;5.95;1.98;;;12.70;99.90;;;;;;5044865;28;20257;-43
2022/10/16 01:36:58;;;;;;;6.47;2.35;;;12.60;99.90;;;;;;5047427;28;20049;-43
2022/10/16 01:39:30;;;;;;;5.28;2.03;;;12.60;99.90;;;;;;5049423;28;20099;-43
2022/10/16 01:42:03;;;;;;;6.65;2.15;;;12.70;99.90;;;;;;5049531;28;20072;-44
2022/10/16 01:44:33;;;;;;;5.07;1.52;;;12.80;99.90;;;;;;5044574;28;20032;-45
2022/10/16 01:46:59;;;;;;;5.32;2.08;;;12.80;99.90;;;;;;5043263;28;20037;-42
2022/10/16 01:49:30;;;;;;;4.93;2.00;;;12.70;99.90;;;;;;5045254;28;20045;-45
2022/10/16 01:51:59;;;;;;;5.55;2.00;;;12.60;99.90;;;;;;5046781;28;20442;-43
2022/10/16 01:54:28;;;;;;;6.25;2.00;;;12.60;99.90;;;;;;5049268;28;20403;-43
2022/10/16 01:56:56;;;;;;;7.38;2.30;;;12.70;99.90;;;;;;5049261;28;20117;-43
2022/10/16 01:59:26;;;;;;;6.22;2.20;;;12.80;99.90;;;;;;5043311;28;20045;-44
2022/10/16 02:01:59;;;;;;;6.63;2.30;;;12.60;99.90;;;;;;5045208;28;20044;-45
2022/10/16 02:04:30;;;;;;;7.25;2.55;;;12.70;99.90;;;;;;5047641;28;20666;-44
2022/10/16 02:06:56;;;;;;;7.43;2.28;;;12.60;99.90;;;;;;5049318;28;20116;-42
2022/10/16 02:09:22;;;;;;;5.25;2.55;;;12.70;99.90;;;;;;5046005;28;20113;-43
2022/10/16 02:11:49;;;;;;;5.35;2.30;;;12.60;99.90;;;;;;5045349;28;20036;-44
2022/10/16 02:14:15;;;;;;;6.57;2.40;;;12.60;99.90;;;;;;5045978;28;20091;-43
2022/10/16 02:16:43;;;;;;;9.05;2.15;;;12.60;99.90;;;;;;5047708;28;20037;-44
2022/10/16 02:19:10;;;;;;;5.25;2.28;;;12.50;99.90;;;;;;5049353;28;20094;-46
2022/10/16 02:21:50;;;;;;;7.28;2.35;;;12.50;99.90;;;;;;5043757;28;20556;-42
2022/10/16 02:24:33;;;;;;;8.15;2.47;;;12.70;99.90;;;;;;5046281;28;20045;-42
2022/10/16 02:27:38;;;;;;;5.23;2.30;;;12.50;99.90;;;;;;5048777;28;20373;-45
2022/10/16 02:30:12;;;;;;;4.47;2.30;;;12.50;99.90;;;;;;5045253;28;20466;-46
2022/10/16 02:32:42;;;;;;;7.40;2.45;;;12.60;99.90;;;;;;5042366;28;20039;-43
2022/10/16 02:35:08;;;;;;;6.22;1.90;;;12.50;99.90;;;;;;5042686;28;20056;-42
2022/10/16 02:37:35;;;;;;;4.85;1.98;;;12.60;99.90;;;;;;5048238;28;20045;-42
2022/10/16 02:40:02;;;;;;;6.68;2.00;;;12.60;99.90;;;;;;5048053;28;20044;-43
2022/10/16 02:42:32;;;;;;;4.95;2.08;;;12.50;99.90;;;;;;5048143;28;20037;-42
2022/10/16 02:44:58;;;;;;;4.90;2.00;;;12.50;99.90;;;;;;5047404;28;20068;-42
2022/10/16 02:47:23;;;;;;;6.10;1.60;;;12.60;99.90;;;;;;5041079;28;20157;-44
2022/10/16 02:49:49;;;;;;;6.03;1.90;;;12.70;99.90;;;;;;5047539;28;20029;-44
2022/10/16 02:52:15;;;;;;;7.18;2.00;;;12.90;99.90;;;;;;5045926;28;20392;-43
2022/10/16 02:54:40;;;;;;;6.18;1.98;;;12.60;99.90;;;;;;5048199;28;20040;-44
2022/10/16 02:57:06;;;;;;;5.53;1.73;;;12.70;99.90;;;;;;5045634;28;20045;-43
2022/10/16 02:59:32;;;;;;;4.95;1.50;;;12.60;99.90;;;;;;5047379;28;20041;-42
2022/10/16 03:01:57;;;;;;;6.72;1.90;;;12.60;99.90;;;;;;5044733;28;20509;-43
2022/10/16 03:04:23;;;;;;;4.95;1.48;;;12.80;99.90;;;;;;5046603;28;20029;-43
2022/10/16 03:06:48;;;;;;;5.50;1.60;;;12.70;99.90;;;;;;5048653;28;20063;-43
2022/10/16 03:09:14;;;;;;;5.57;1.80;;;12.60;99.90;;;;;;5046747;28;20072;-44
2022/10/16 03:11:40;;;;;;;3.95;1.55;;;12.70;99.90;;;;;;5043260;28;20143;-44
2022/10/16 03:14:05;;;;;;;5.90;1.92;;;12.70;99.90;;;;;;5043721;28;20416;-43
2022/10/16 03:16:31;;;;;;;3.92;1.67;;;12.80;99.90;;;;;;5047172;28;20390;-45
2022/10/16 03:18:57;;;;;;;5.18;1.55;;;12.70;99.90;;;;;;5046742;28;20497;-43
2022/10/16 03:21:23;;;;;;;3.83;1.60;;;12.80;99.90;;;;;;5042967;28;20071;-42
2022/10/16 03:23:48;;;;;;;8.15;2.10;;;12.90;99.90;;;;;;5042687;28;20553;-43
2022/10/16 03:26:14;;;;;;;5.55;2.05;;;12.90;99.90;;;;;;5043702;28;20039;-45
2022/10/16 03:28:40;;;;;;;4.13;2.00;;;12.90;99.90;;;;;;5045194;28;20129;-43
2022/10/16 03:31:05;;;;;;;5.65;1.90;;;12.90;99.90;;;;;;5047380;28;20124;-44
2022/10/16 03:33:31;;;;;;;6.60;2.00;;;12.70;99.90;;;;;;5046602;28;20068;-43
2022/10/16 03:35:57;;;;;;;5.15;1.98;;;12.70;99.90;;;;;;5041107;28;20831;-42
2022/10/16 03:38:23;;;;;;;4.72;2.00;;;12.70;99.90;;;;;;5044674;28;20052;-44
2022/10/16 03:40:49;;;;;;;6.28;2.10;;;12.60;99.90;;;;;;5046270;28;20033;-46
2022/10/16 03:43:15;;;;;;;4.95;2.13;;;12.70;99.90;;;;;;5047340;28;20041;-44
2022/10/16 03:45:40;;;;;;;4.55;2.00;;;12.70;99.90;;;;;;5044030;28;20036;-45
2022/10/16 03:48:06;;;;;;;7.22;2.13;;;12.70;99.90;;;;;;5042736;28;20443;-43
2022/10/16 03:50:32;;;;;;;6.47;2.10;;;12.50;99.90;;;;;;5045215;28;20037;-43
2022/10/16 03:52:57;;;;;;;6.97;2.30;;;12.60;99.90;;;;;;5047388;28;20475;-44
2022/10/16 03:55:23;;;;;;;3.20;1.85;;;12.60;99.90;;;;;;5044666;28;20036;-43
2022/10/16 03:57:49;;;;;;;7.90;2.17;;;12.60;99.90;;;;;;5041878;28;20045;-42
2022/10/16 04:00:14;;;;;;;5.15;2.53;;;12.40;99.90;;;;;;5044012;28;20037;-42
2022/10/16 04:02:40;;;;;;;9.05;2.65;;;12.50;99.90;;;;;;5043672;28;20033;-44
2022/10/16 04:05:06;;;;;;;6.50;2.38;;;12.30;99.90;;;;;;5047057;28;20098;-45
2022/10/16 04:07:32;;;;;;;5.60;2.80;;;12.40;99.90;;;;;;5043020;28;20045;-43
2022/10/16 04:09:58;;;;;;;4.30;2.10;;;12.20;99.90;;;;;;5045661;28;20146;-46
2022/10/16 04:12:25;;;;;;;6.63;2.70;;;12.20;99.90;;;;;;5043714;28;20044;-42
2022/10/16 04:14:51;;;;;;;6.10;2.50;;;12.10;99.90;;;;;;5042988;28;20033;-42
2022/10/16 04:17:17;;;;;;;5.38;2.67;;;12.30;99.90;;;;;;5046468;28;20036;-42
2022/10/16 04:19:42;;;;;;;7.40;2.70;;;12.10;99.90;;;;;;5047719;28;20091;-43
2022/10/16 04:22:08;;;;;;;4.55;2.55;;;12.00;99.90;;;;;;5039693;28;20040;-42
2022/10/16 04:24:34;;;;;;;5.22;2.80;;;12.30;99.90;;;;;;5043480;28;20048;-43
2022/10/16 04:26:59;;;;;;;4.43;2.80;;;12.30;99.90;;;;;;5044926;28;20036;-43
2022/10/16 04:29:25;;;;;;;6.47;2.50;;;12.20;99.90;;;;;;5046777;28;20435;-45
2022/10/16 04:31:51;;;;;;;5.28;2.70;;;12.30;99.90;;;;;;5040436;28;20037;-43
2022/10/16 04:34:16;;;;;;;6.72;2.85;;;12.10;99.90;;;;;;5042466;28;20037;-43
2022/10/16 04:36:42;;;;;;;5.15;2.50;;;12.40;99.90;;;;;;5044344;28;20558;-43
2022/10/16 04:39:07;;;;;;;6.50;3.13;;;12.20;99.90;;;;;;5045994;28;20086;-42
2022/10/16 04:41:33;;;;;;;6.13;2.80;;;12.50;99.90;;;;;;5044674;28;20040;-45
2022/10/16 04:43:59;;;;;;;5.75;2.70;;;12.40;99.90;;;;;;5040999;28;20069;-45
2022/10/16 04:46:24;;;;;;;7.20;3.00;;;12.40;99.90;;;;;;5044705;28;20439;-44
2022/10/16 04:48:50;;;;;;;7.20;3.17;;;12.30;99.90;;;;;;5045103;28;20041;-43
2022/10/16 04:51:16;;;;;;;5.38;3.03;;;12.60;99.90;;;;;;5047071;28;20098;-46
2022/10/16 04:53:42;;;;;;;6.70;2.85;;;12.50;99.90;;;;;;5039779;28;20571;-43
2022/10/16 04:56:07;;;;;;;6.05;3.00;;;12.40;99.90;;;;;;5042025;28;20295;-44
2022/10/16 04:58:33;;;;;;;5.30;3.08;;;12.50;99.90;;;;;;5044356;28;20037;-42
2022/10/16 05:00:59;;;;;;;7.57;3.30;;;12.50;99.90;;;;;;5044856;28;20045;-45
2022/10/16 05:03:24;;;;;;;7.65;3.17;;;12.50;99.90;;;;;;5047184;28;20095;-42
2022/10/16 05:05:50;;;;;;;7.20;3.38;;;12.50;99.90;;;;;;5056406;28;20124;-43
2022/10/16 05:08:16;;;;;;;7.45;3.38;;;12.50;99.90;;;;;;5045112;28;20081;-43
2022/10/16 05:10:44;;;;;;;8.55;3.10;;;12.10;99.90;;;;;;5042664;28;20044;-44
2022/10/16 05:13:10;;;;;;;5.65;3.40;;;12.20;99.90;;;;;;5047025;28;20130;-42
2022/10/16 05:15:36;;;;;;;7.00;3.58;;;12.40;99.90;;;;;;5041603;28;20037;-42
2022/10/16 05:18:01;;;;;;;7.60;2.97;;;12.20;99.90;;;;;;5055421;28;20094;-42
2022/10/16 05:20:27;;;;;;;6.47;3.10;;;12.30;99.90;;;;;;5042919;28;20047;-43
2022/10/16 05:22:53;;;;;;;5.57;2.92;;;12.50;99.90;;;;;;5044457;28;20373;-42
2022/10/16 05:25:18;;;;;;;6.18;2.85;;;12.30;99.90;;;;;;5045408;28;20033;-43
2022/10/16 05:27:48;;;;;;;7.60;3.17;;;12.50;99.90;;;;;;5041301;28;20037;-44
2022/10/16 05:30:14;;;;;;;7.57;2.90;;;12.30;99.90;;;;;;5041474;28;20040;-41
2022/10/16 05:32:40;;;;;;;6.50;3.47;;;12.20;99.90;;;;;;5043666;28;20037;-42
2022/10/16 05:35:05;;;;;;;5.25;2.90;;;12.20;99.90;;;;;;5045105;28;20064;-42
2022/10/16 05:37:31;;;;;;;5.25;2.97;;;12.20;99.90;;;;;;5044439;28;20388;-44
2022/10/16 05:39:57;;;;;;;5.70;2.92;;;12.10;99.90;;;;;;5039829;28;20033;-43
2022/10/16 05:42:23;;;;;;;5.95;2.70;;;12.30;99.90;;;;;;5042071;28;20052;-42
2022/10/16 05:44:48;;;;;;;8.13;2.58;;;12.20;99.90;;;;;;5044460;28;20033;-43
2022/10/16 05:47:14;;;;;;;6.28;3.05;;;12.30;99.90;;;;;;5046876;28;20048;-43
2022/10/16 05:49:40;;;;;;;6.32;2.75;;;12.30;99.90;;;;;;5038350;28;20060;-42
2022/10/16 05:52:05;;;;;;;14.75;3.40;;;12.00;99.90;;;;;;5040276;28;20110;-43
2022/10/16 05:54:31;;;;;;;5.75;2.63;;;12.20;99.90;;;;;;5043807;28;20041;-43
2022/10/16 05:56:57;;;;;;;4.80;2.70;;;12.00;99.90;;;;;;5044381;28;20051;-43
2022/10/16 05:59:22;;;;;;;7.50;3.13;;;12.20;99.90;;;;;;5045983;28;20072;-44
2022/10/16 06:01:48;;;;;;;8.48;3.40;;;12.20;99.90;;;;;;5041329;28;20579;-44
2022/10/16 06:04:14;;;;;;;6.00;2.92;;;12.40;99.90;;;;;;5040402;28;20025;-43
2022/10/16 06:06:40;;;;;;;5.97;2.53;;;12.00;99.90;;;;;;5042311;28;20077;-42
2022/10/16 06:09:06;;;;;;;6.63;2.70;;;12.10;99.90;;;;;;5048794;28;20084;-44
2022/10/16 06:11:33;;;;;;;5.05;2.33;;;12.40;99.90;;;;;;5050304;28;20048;-43
2022/10/16 06:14:02;;;;;;;6.15;2.92;;;12.10;99.90;;;;;;5044697;28;20507;-43
2022/10/16 06:16:28;;;;;;;6.47;2.88;;;12.20;99.90;;;;;;5044606;28;20037;-45
2022/10/16 06:18:55;;;;;;;7.70;2.40;;;12.30;99.90;;;;;;5046825;28;20478;-43
2022/10/16 06:21:26;;;;;;;6.63;2.65;;;12.20;99.90;;;;;;5047774;28;20129;-42
2022/10/16 06:23:53;;;;;;;5.47;2.60;;;12.30;99.90;;;;;;5048494;28;20041;-44
2022/10/16 06:26:21;;;;;;;5.95;3.08;;;12.50;99.90;;;;;;5046102;28;20526;-42
2022/10/16 06:28:47;;;;;;;5.97;2.58;;;12.60;99.90;;;;;;5040697;28;20057;-42
2022/10/16 06:31:13;;;;;;;6.18;2.70;;;12.30;99.90;;;;;;5043704;28;20481;-45
2022/10/16 06:33:39;;;;;;;5.68;2.97;;;12.30;99.90;;;;;;5045556;28;20033;-44
2022/10/16 06:36:11;;;;;;;4.45;2.30;;;12.40;99.90;;;;;;5047493;28;20116;-42
2022/10/16 06:38:37;;;;;;;8.10;2.70;;;12.50;99.90;;;;;;5030653;28;20139;-42
2022/10/16 06:41:04;;;;;;;5.72;2.67;;;12.60;99.90;;;;;;5042362;28;20041;-42
2022/10/16 06:43:37;;;;;;;7.55;2.83;;;12.60;99.90;;;;;;5043240;28;20029;-44
2022/10/16 06:46:05;;;;;;;4.68;2.45;;;12.40;99.90;;;;;;5046969;28;20127;-46
2022/10/16 06:48:31;;;;;;;6.93;2.60;;;12.80;99.90;;;;;;5049418;28;20041;-45
2022/10/16 06:51:05;;;;;;;6.35;2.40;;;12.60;99.90;;;;;;5045550;28;20380;-45
2022/10/16 06:53:33;;;;;;;5.35;2.40;;;12.60;99.90;;;;;;5043243;28;20059;-43
2022/10/16 06:56:13;;;;;;;5.53;2.35;;;12.70;99.90;;;;;;5044334;28;20484;-43
2022/10/16 06:58:40;;;;;;;7.63;2.50;;;12.80;99.90;;;;;;5047081;28;20485;-43
2022/10/16 07:01:06;;;;;;;6.20;2.25;;;12.80;99.90;;;;;;5049580;28;20033;-42
2022/10/16 07:03:32;;;;;;;6.35;2.20;;;12.90;99.90;;;;;;5039042;28;20104;-43
2022/10/16 07:06:03;;;;;;;5.82;2.60;;;12.80;99.90;;;;;;5045769;28;20662;-42
2022/10/16 07:08:32;;;;;;;4.85;2.10;;;12.80;99.90;;;;;;5040904;28;20055;-44
2022/10/16 07:11:02;;;;;;;6.53;2.38;;;13.00;99.90;;;;;;5039012;28;20037;-41
2022/10/16 07:13:28;;;;;;;7.28;1.95;;;12.90;99.90;;;;;;5038568;28;20132;-45
2022/10/16 07:15:54;;;;;;;4.75;1.90;;;13.20;99.90;;;;;;5040713;28;20186;-42
2022/10/16 07:18:20;;;;;;;8.02;1.83;;;13.20;99.90;;;;;;5040829;28;20044;-43
2022/10/16 07:20:45;;;;;;;4.45;1.80;;;13.20;99.90;;;;;;5042087;28;20474;-42
2022/10/16 07:23:11;;;;;;;5.10;1.77;;;13.30;99.90;;;;;;5039110;28;20071;-44
2022/10/16 07:25:37;;;;;;;8.45;1.98;;;13.30;99.90;;;;;;5039056;28;20037;-45
2022/10/16 07:28:02;;;;;;;4.93;1.55;;;13.40;99.90;;;;;;5039114;28;20048;-43
2022/10/16 07:30:28;;;;;;;5.07;1.42;;;13.40;99.90;;;;;;5040517;28;20032;-45
2022/10/16 07:32:54;;;;;;;6.03;1.40;;;13.20;99.90;;;;;;5041398;28;20037;-42
2022/10/16 07:35:19;;;;;;;3.50;1.02;;;13.30;99.90;;;;;;5040463;28;20049;-44
2022/10/16 07:37:46;;;;;;;4.15;1.10;;;13.30;99.90;;;;;;5040367;28;20047;-43
2022/10/16 07:40:12;;;;;;;3.78;1.00;;;13.50;99.90;;;;;;5041635;28;20094;-45
2022/10/16 07:42:37;;;;;;;5.22;1.05;;;13.30;99.90;;;;;;5039890;28;20033;-43
2022/10/16 07:45:03;;;;;;;3.33;1.00;;;13.40;99.90;;;;;;5038476;28;20476;-43
2022/10/16 07:47:29;;;;;;;3.13;0.93;;;13.40;99.90;;;;;;5039996;28;20033;-46
2022/10/16 07:49:55;;;;;;;5.13;1.08;;;13.30;99.90;;;;;;5040385;28;20033;-42
2022/10/16 07:52:20;;;;;;;3.65;1.30;;;13.50;99.90;;;;;;5039526;28;20044;-44
2022/10/16 07:54:46;;;;;;;6.07;1.30;;;13.40;99.90;;;;;;5036088;28;20579;-44
2022/10/16 07:57:18;;;;;;;6.18;1.50;;;13.30;99.90;;;;;;5035402;28;20041;-45
2022/10/16 07:59:44;;;;;;;5.38;1.67;;;13.50;99.90;;;;;;5034662;28;20041;-43
2022/10/16 08:02:09;;;;;;;4.05;1.58;;;13.60;99.90;;;;;;5034414;28;20044;-44
2022/10/16 08:04:35;;;;;;;7.50;1.80;;;13.50;99.90;;;;;;5036695;28;20029;-43
2022/10/16 08:07:01;;;;;;;5.00;1.70;;;13.50;99.90;;;;;;5021087;28;20036;-42
2022/10/16 08:09:26;;;;;;;6.88;2.40;;;13.80;99.90;;;;;;5040294;28;20040;-45
2022/10/16 08:11:52;;;;;;;5.97;2.40;;;13.70;99.90;;;;;;5040000;28;20037;-43
2022/10/16 08:14:18;;;;;;;6.00;2.47;;;13.90;99.90;;;;;;5039144;28;20425;-42
2022/10/16 08:16:43;;;;;;;5.32;2.45;;;13.90;99.90;;;;;;5039313;28;20528;-44
2022/10/16 08:19:09;;;;;;;7.80;2.60;;;13.70;99.90;;;;;;5039996;28;20500;-43
2022/10/16 08:21:35;;;;;;;8.07;3.10;;;13.90;99.90;;;;;;5039763;28;20036;-44
2022/10/16 08:24:00;;;;;;;6.00;2.90;;;13.90;99.90;;;;;;5039982;28;20033;-43
2022/10/16 08:26:26;;;;;;;6.20;2.95;;;13.80;99.90;;;;;;5039333;28;20040;-44
2022/10/16 08:28:52;;;;;;;5.97;2.63;;;14.00;99.90;;;;;;5040110;28;20091;-43
2022/10/16 08:31:18;;;;;;;6.93;2.83;;;14.00;99.90;;;;;;5039858;28;20037;-43
2022/10/16 08:33:47;;;;;;;7.93;3.05;;;13.80;99.90;;;;;;5037301;28;20554;-43
2022/10/16 08:36:13;;;;;;;8.70;3.20;;;14.00;99.90;;;;;;5038280;28;20065;-43
2022/10/16 08:38:40;;;;;;;9.27;3.00;;;13.80;99.90;;;;;;5038822;28;20070;-44
2022/10/16 08:41:17;;;;;;;7.07;3.10;;;14.10;99.90;;;;;;5037359;28;20124;-42
2022/10/16 08:44:03;;;;;;;8.85;3.03;;;14.20;99.90;;;;;;5038276;28;20519;-42
2022/10/16 08:47:06;;;;;;;7.40;2.80;;;14.10;99.90;;;;;;5037509;28;20044;-42
2022/10/16 08:49:32;;;;;;;5.50;2.63;;;14.30;99.90;;;;;;5035029;28;20046;-42
2022/10/16 08:51:58;;;;;;;8.63;2.50;;;14.30;99.90;;;;;;5038450;28;20503;-45
2022/10/16 08:54:40;;;;;;;9.20;2.90;;;14.30;99.90;;;;;;5037447;28;20068;-42
2022/10/16 08:57:21;;;;;;;6.97;2.72;;;14.60;99.90;;;;;;5036634;28;20044;-44
2022/10/16 08:59:47;;;;;;;5.38;2.58;;;14.60;99.90;;;;;;5037696;28;20116;-44
2022/10/16 09:02:40;;;;;;;8.60;2.45;;;14.70;99.90;;;;;;5038756;28;20047;-41
2022/10/16 09:05:45;;;;;;;9.30;2.80;;;14.70;99.90;;;;;;5037659;28;20063;-46
2022/10/16 09:08:34;;;;;;;6.13;2.40;;;14.80;99.90;;;;;;5038855;28;20397;-43
2022/10/16 09:11:41;;;;;;;6.47;2.35;;;15.00;99.90;;;;;;5037897;28;20061;-43
2022/10/16 09:14:43;;;;;;;8.48;2.30;;;15.10;99.90;;;;;;5038922;28;20040;-46
2022/10/16 09:17:29;;;;;;;5.53;1.92;;;15.10;99.90;;;;;;5036050;28;20056;-42
2022/10/16 09:20:20;;;;;;;7.78;2.10;;;15.30;99.90;;;;;;5036871;28;20502;-44
2022/10/16 09:22:46;;;;;;;6.70;1.90;;;15.40;99.90;;;;;;5039150;28;20055;-43
2022/10/16 09:25:16;;;;;;;5.72;1.95;;;15.50;99.90;;;;;;5039477;28;20036;-44
2022/10/16 09:27:46;;;;;;;9.93;2.22;;;15.40;99.90;;;;;;5037641;28;20106;-46
2022/10/16 09:30:16;;;;;;;8.10;2.08;;;15.50;99.90;;;;;;5045143;28;20041;-45
2022/10/16 09:32:44;;;;;;;9.50;1.80;;;15.60;99.90;;;;;;5042391;28;20064;-45
2022/10/16 09:35:15;;;;;;;5.63;1.80;;;15.50;99.90;;;;;;5045298;28;20037;-45
2022/10/16 09:37:44;;;;;;;7.80;1.70;;;15.60;99.90;;;;;;5044093;28;20286;-43
2022/10/16 09:40:30;;;;;;;10.25;1.95;;;15.70;99.90;;;;;;5049216;28;20040;-44
2022/10/16 09:43:20;;;;;;;10.57;2.00;;;15.70;99.90;;;;;;5050528;28;20056;-43
2022/10/16 09:45:58;;;;;;;11.15;2.30;;;15.80;99.90;;;;;;5052155;28;20506;-42
2022/10/16 09:48:28;;;;;;;7.13;1.63;;;15.90;99.90;;;;;;5052931;28;20044;-44
2022/10/16 09:50:59;;;;;;;9.00;2.00;;;16.00;99.90;;;;;;5051655;28;20059;-43
2022/10/16 09:53:37;;;;;;;8.40;1.77;;;16.00;99.90;;;;;;5052698;28;20501;-45
2022/10/16 09:56:05;;;;;;;10.05;1.92;;;16.00;99.90;;;;;;5048318;28;20053;-44
2022/10/16 09:58:32;;;;;;;11.85;2.20;;;15.90;99.90;;;;;;5045323;28;20105;-43
2022/10/16 10:00:59;;;;;;;13.40;2.60;;;15.80;99.90;;;;;;5044243;28;20048;-44
2022/10/16 10:03:36;;;;;;;11.05;2.13;;;16.10;99.90;;;;;;5042025;28;20037;-43
2022/10/16 10:06:38;;;;;;;10.02;2.58;;;16.20;99.90;;;;;;5042182;28;20118;-43
2022/10/16 10:09:25;;;;;;;8.68;2.15;;;16.10;99.90;;;;;;5051364;28;20065;-42
2022/10/16 10:11:56;;;;;;;10.18;2.13;;;16.30;99.90;;;;;;5045501;28;20566;-45
2022/10/16 10:14:28;;;;;;;14.52;2.25;;;16.50;99.90;;;;;;5050441;28;20036;-44
2022/10/16 10:17:05;;;;;;;14.48;2.78;;;16.40;99.90;;;;;;5046231;28;20076;-43
2022/10/16 10:19:39;;;;;;;8.80;2.00;;;16.50;99.90;;;;;;5047458;28;20033;-43
2022/10/16 10:22:19;;;;;;;8.32;2.22;;;16.40;99.90;;;;;;5043145;28;20080;-43
2022/10/16 10:25:00;;;;;;;9.70;2.25;;;16.60;99.90;;;;;;5047229;28;20029;-43
2022/10/16 10:27:42;;;;;;;11.20;2.30;;;16.80;99.90;;;;;;5048760;28;20420;-44
2022/10/16 10:30:33;;;;;;;10.45;2.22;;;16.70;99.90;;;;;;5048908;28;20041;-46
2022/10/16 10:33:38;;;;;;;9.38;2.00;;;16.90;99.90;;;;;;5045985;28;20165;-44
2022/10/16 10:36:16;;;;;;;12.13;2.33;;;16.90;99.90;;;;;;5018665;28;20087;-44
2022/10/16 10:39:00;;;;;;;9.63;2.40;;;17.20;99.90;;;;;;5022069;28;20077;-45
2022/10/16 10:41:31;;;;;;;11.00;1.90;;;17.30;99.90;;;;;;5036420;28;20068;-47
2022/10/16 10:44:19;;;;;;;7.90;2.08;;;17.40;99.90;;;;;;5045802;28;20644;-45
2022/10/16 10:47:05;;;;;;;10.10;2.38;;;17.40;99.90;;;;;;5041020;28;20040;-45
2022/10/16 10:49:55;;;;;;;9.63;2.25;;;17.50;99.90;;;;;;5039970;28;20056;-44
2022/10/16 10:52:34;;;;;;;13.05;2.63;;;17.60;99.90;;;;;;5043846;28;20986;-45
2022/10/16 10:55:31;;;;;;;10.05;1.63;;;17.50;99.90;;;;;;5036854;28;20948;-48
2022/10/16 10:58:15;;;;;;;8.27;2.13;;;17.50;99.90;;;;;;5041406;28;20509;-45
2022/10/16 11:01:13;;;;;;;11.13;1.70;;;17.70;99.90;;;;;;5039027;28;20123;-43
2022/10/16 11:04:06;;;;;;;10.00;2.08;;;17.60;99.90;;;;;;5042899;28;20025;-46
2022/10/16 11:06:51;;;;;;;9.52;2.30;;;17.60;99.90;;;;;;5047209;28;20620;-44
2022/10/16 11:09:27;;;;;;;9.57;2.15;;;17.50;99.90;;;;;;5039134;28;20049;-43
2022/10/16 11:12:06;;;;;;;10.48;1.73;;;17.40;99.90;;;;;;5039534;28;20777;-46
2022/10/16 11:14:55;;;;;;;9.23;2.08;;;17.30;99.90;;;;;;5039937;28;20048;-46
2022/10/16 11:17:52;;;;;;;7.55;2.08;;;17.20;99.90;;;;;;5041810;28;20049;-43
2022/10/16 11:20:24;;;;;;;11.40;2.25;;;17.40;99.90;;;;;;5040129;28;20199;-44
2022/10/16 11:22:58;;;;;;;9.32;1.98;;;17.50;99.90;;;;;;5039988;28;20033;-43
2022/10/16 11:25:32;;;;;;;8.98;1.85;;;17.90;99.90;;;;;;5041025;28;20473;-46
2022/10/16 11:28:16;;;;;;;8.85;1.90;;;18.10;99.90;;;;;;5040153;28;20122;-45
2022/10/16 11:31:17;;;;;;;;;;;18.00;99.90;;;;;;5041777;28;20071;-45
2022/10/16 11:34:02;;;;;;;8.43;1.95;;;18.30;99.90;;;;;;5003465;28;19922;-44
2022/10/16 11:36:39;;;;;;;9.98;1.67;;;18.60;99.90;;;;;;5035210;28;20054;-45
2022/10/16 11:39:24;;;;;;;10.55;1.98;;;18.50;99.90;;;;;;5040251;28;20044;-45
2022/10/16 11:42:09;;;;;;;9.60;1.88;;;18.60;99.90;;;;;;5040583;28;20037;-45
2022/10/16 11:45:25;;;;;;;9.52;1.88;;;18.80;99.90;;;;;;5038083;28;20041;-44
2022/10/16 11:48:35;;;;;;;6.82;1.80;;;19.10;99.90;;;;;;5020968;28;20052;-43
2022/10/16 11:51:12;;;;;;;12.32;2.00;;;18.80;99.90;;;;;;5019670;28;20045;-43
2022/10/16 11:54:05;;;;;;;10.55;1.83;;;18.60;99.90;;;;;;5034259;28;20049;-45
2022/10/16 11:56:35;;;;;;;10.35;1.88;;;18.40;99.90;;;;;;5039278;28;20435;-44
2022/10/16 11:59:17;;;;;;;8.30;1.85;;;18.70;99.90;;;;;;5035594;28;20069;-45
2022/10/16 12:02:20;;;;;;;9.68;2.13;;;18.90;99.90;;;;;;5041635;28;20068;-43
2022/10/16 12:04:56;;;;;;;12.13;1.58;;;18.90;99.90;;;;;;5041674;28;20427;-43
2022/10/16 12:07:32;;;;;;;8.18;1.55;;;18.60;99.90;;;;;;5041776;28;20037;-44
2022/10/16 12:10:00;;;;;;;13.23;2.10;;;18.40;99.90;;;;;;5043005;28;20036;-47
2022/10/16 12:12:35;;;;;;;9.25;1.77;;;18.00;99.90;;;;;;5029323;28;20083;-44
2022/10/16 12:15:28;;;;;;;8.65;1.70;;;18.00;99.90;;;;;;5044649;28;20033;-43
2022/10/16 12:17:54;;;;;;;7.28;1.70;;;17.80;99.90;;;;;;5045328;28;20041;-44
2022/10/16 12:20:25;;;;;;;9.20;1.67;;;17.70;99.90;;;;;;5047078;28;20098;-44
2022/10/16 12:22:55;;;;;;;9.80;1.83;;;17.70;99.90;;;;;;5047357;28;20377;-46
2022/10/16 12:25:29;;;;;;;11.70;1.70;;;17.60;99.90;;;;;;5044944;28;20111;-45
2022/10/16 12:28:04;;;;;;;;;;;17.50;99.90;;;;;;5044545;28;20041;-43
2022/10/16 12:30:30;;;;;;;;;;;17.30;99.90;;;;;;5041782;28;19921;-43
2022/10/16 12:33:20;;;;;;;8.13;1.70;;;17.20;99.90;;;;;;5042654;28;19966;-45
2022/10/16 12:35:46;;;;;;;11.25;2.22;;;17.20;99.90;;;;;;5043957;28;20049;-45
2022/10/16 12:38:27;;;;;;;10.10;2.08;;;17.20;99.90;;;;;;5045836;28;20041;-46
2022/10/16 12:41:05;;;;;;;11.25;1.95;;;17.20;99.90;;;;;;5047765;28;20131;-46
2022/10/16 12:43:46;;;;;;;12.85;2.10;;;17.40;99.90;;;;;;5042926;28;20037;-44
2022/10/16 12:46:11;;;;;;;8.75;1.80;;;17.80;99.90;;;;;;5043032;28;20041;-45
2022/10/16 12:48:38;;;;;;;9.40;1.80;;;18.30;99.90;;;;;;5044404;28;20034;-45
2022/10/16 12:51:40;;;;;;;11.27;2.20;;;18.80;99.90;;;;;;5045655;28;20041;-44
2022/10/16 12:54:12;;;;;;;10.48;2.10;;;19.30;99.90;;;;;;5006291;28;20048;-45
2022/10/16 12:57:03;;;;;;;12.25;1.90;;;19.60;99.90;;;;;;5041221;28;20501;-45
2022/10/16 12:59:37;;;;;;;8.10;1.75;;;19.90;99.90;;;;;;5047302;28;20037;-43
2022/10/16 13:02:03;;;;;;;6.63;1.55;;;20.00;99.90;;;;;;5044087;28;20060;-46
2022/10/16 13:04:53;;;;;;;11.32;1.95;;;20.00;99.90;;;;;;5042351;28;20655;-46
2022/10/16 13:07:43;;;;;;;9.27;1.90;;;20.20;99.90;;;;;;5041972;28;20040;-45
2022/10/16 13:10:23;;;;;;;13.18;1.80;;;20.10;99.90;;;;;;5042890;28;20049;-45
2022/10/16 13:13:13;;;;;;;7.50;1.52;;;19.90;99.90;;;;;;5045015;28;20384;-46